Latest Coastal Weather Observations for Lihou Reef Lighthouse

IDQ60701

Issued at 6:42 am EST Thursday 23 May 2024 (issued every 10 minutes, with the page automatically refreshed every 10 minutes)

About coastal observations | Map of coastal stations | Coastal observations for QLD | Marine services | Other Formats
Station Details ID: 200880 Name: LIHOU REEF LIGHTHOUSE Lat: -17.13 Lon: 152.15 Height: 10.26 m
Data from the previous 72 hours. | See also: Recent months at Lihou Reef Lighthouse
Date/Time
EST
Wind Sea
Height
m
Swell Vis
km
Cloud Weather Temp
°C
Press
MSL
hPa
Rain since
9am
mm
Dir  Spd
kts
Gust
kts
Height
m
Period
s
Dir
23/06:30am SE 22 26 - - - - - - - 25.3 1015.2 -
23/06:00am SE 20 27 - - - - - - - 24.5 1014.9 -
23/05:30am SE 22 26 - - - - - - - 24.6 1014.6 -
23/05:00am SE 21 25 - - - - - - - 25.2 1014.4 -
23/04:30am SE 20 24 - - - - - - - 25.3 1014.3 -
23/04:00am SE 21 26 - - - - - - - 25.2 1014.0 -
23/03:30am SE 22 26 - - - - - - - 25.2 1014.1 -
23/03:00am SE 22 26 - - - - - - - 25.3 1014.1 -
23/02:30am SE 23 26 - - - - - - - 25.2 1014.2 -
23/02:00am SE 22 26 - - - - - - - 25.2 1014.5 -
23/01:30am SE 22 27 - - - - - - - 25.4 1014.6 -
23/01:00am ESE 19 23 - - - - - - - 25.4 1014.8 -
23/12:30am SE 18 21 - - - - - - - 25.4 1015.2 -
23/12:00am SE 20 22 - - - - - - - 25.5 1015.3 -
 
Date/Time
EST
Wind Sea
Height
m
Swell Vis
km
Cloud Weather Temp
°C
Press
MSL
hPa
Rain since
9am
mm
Dir  Spd
kts
Gust
kts
Height
m
Period
s
Dir
22/11:30pm ESE 19 24 - - - - - - - 25.4 1015.3 -
22/11:00pm SE 19 22 - - - - - - - 25.5 1015.7 -
22/10:30pm SE 20 24 - - - - - - - 25.5 1016.0 -
22/10:00pm SE 18 23 - - - - - - - 25.5 1016.0 -
22/09:30pm SE 17 20 - - - - - - - 25.6 1016.2 -
22/09:00pm ESE 18 21 - - - - - - - 25.6 1016.3 -
22/08:30pm SE 20 23 - - - - - - - 25.6 1016.3 -
22/08:00pm ESE 19 22 - - - - - - - 25.5 1016.2 -
22/07:30pm SE 19 22 - - - - - - - 25.7 1016.0 -
22/07:00pm SE 20 23 - - - - - - - 25.7 1015.7 -
22/06:30pm SE 19 23 - - - - - - - 25.6 1015.6 -
22/06:00pm SE 19 22 - - - - - - - 25.8 1015.4 -
22/05:30pm SE 20 23 - - - - - - - 25.6 1015.0 -
22/05:00pm SE 19 23 - - - - - - - 25.6 1014.7 -
22/04:30pm SE 20 23 - - - - - - - 25.6 1014.4 -
22/04:00pm SE 18 24 - - - - - - - 25.7 1014.3 -
22/03:30pm SE 19 22 - - - - - - - 25.8 1014.2 -
22/03:00pm SE 20 23 - - - - - - - 25.6 1014.0 -
22/02:30pm SE 18 23 - - - - - - - 25.7 1014.1 -
22/02:00pm SE 19 23 - - - - - - - 25.6 1014.1 -
22/01:30pm SE 20 23 - - - - - - - 25.5 1014.2 -
22/01:00pm SE 20 23 - - - - - - - 25.5 1014.4 -
22/12:30pm SE 20 23 - - - - - - - 25.6 1014.7 -
22/12:00pm SE 21 24 - - - - - - - 25.5 1015.0 -
22/11:30am SE 21 25 - - - - - - - 25.5 1015.4 -
22/11:00am SE 20 24 - - - - - - - 25.4 1015.7 -
22/10:30am SE 22 26 - - - - - - - 25.5 1015.7 -
22/10:00am SE 21 24 - - - - - - - 25.4 1016.0 -
22/09:30am SE 21 25 - - - - - - - 25.6 1016.1 -
22/09:00am SE 20 24 - - - - - - - 25.5 1015.9 -
22/08:30am SE 22 25 - - - - - - - 25.4 1015.6 -
22/08:00am SE 20 25 - - - - - - - 25.5 1015.4 -
22/07:30am SE 21 25 - - - - - - - 25.5 1015.1 -
22/07:00am SE 20 25 - - - - - - - 25.4 1015.1 -
22/06:30am SE 21 25 - - - - - - - 25.4 1014.8 -
22/06:00am SE 21 24 - - - - - - - 25.4 1014.5 -
22/05:30am SE 20 24 - - - - - - - 25.3 1014.5 -
22/05:00am SE 21 24 - - - - - - - 25.3 1014.1 -
22/04:30am SE 22 25 - - - - - - - 25.5 1013.9 -
22/04:00am SE 20 26 - - - - - - - 25.2 1014.2 -
22/03:30am SE 20 24 - - - - - - - 25.2 1014.1 -
22/03:00am SE 20 24 - - - - - - - 25.4 1014.4 -
22/02:30am SE 22 25 - - - - - - - 25.4 1013.8 -
22/02:00am SE 21 24 - - - - - - - 25.2 1014.4 -
22/01:30am SE 19 23 - - - - - - - 25.5 1014.8 -
22/01:00am SE 20 25 - - - - - - - 25.5 1014.9 -
22/12:30am SE 20 24 - - - - - - - 25.3 1015.1 -
22/12:00am SE 17 20 - - - - - - - 25.6 1015.7 -
 
Date/Time
EST
Wind Sea
Height
m
Swell Vis
km
Cloud Weather Temp
°C
Press
MSL
hPa
Rain since
9am
mm
Dir  Spd
kts
Gust
kts
Height
m
Period
s
Dir
21/11:30pm SE 19 22 - - - - - - - 25.0 1015.6 -
21/11:00pm SE 18 21 - - - - - - - 24.7 1015.7 -
21/10:30pm SE 20 26 - - - - - - - 25.1 1016.0 -
21/10:00pm ESE 19 22 - - - - - - - 24.9 1016.3 -
21/09:30pm ESE 19 23 - - - - - - - 24.8 1016.3 -
21/09:00pm SE 20 23 - - - - - - - 25.6 1016.0 -
21/08:30pm SE 20 22 - - - - - - - 25.1 1015.9 -
21/08:00pm SE 21 24 - - - - - - - 25.1 1015.4 -
21/07:30pm ESE 18 22 - - - - - - - 24.9 1015.7 -
21/07:00pm SE 19 23 - - - - - - - 25.4 1015.0 -
21/06:30pm SE 18 23 - - - - - - - 24.9 1014.7 -
21/06:00pm SE 17 20 - - - - - - - 25.1 1014.5 -
21/05:30pm SE 18 21 - - - - - - - 25.4 1014.1 -
21/05:00pm SE 18 21 - - - - - - - 25.3 1013.7 -
21/04:30pm SE 18 21 - - - - - - - 25.2 1013.4 -
21/04:00pm SE 15 18 - - - - - - - 24.6 1013.4 -
21/03:30pm SE 17 21 - - - - - - - 24.5 1013.1 -
21/03:00pm SE 17 20 - - - - - - - 24.1 1013.1 -
21/02:30pm SE 17 21 - - - - - - - 24.8 1013.2 -
21/02:00pm SE 18 20 - - - - - - - 25.1 1013.2 -
21/01:30pm ESE 20 25 - - - - - - - 25.4 1013.2 -
21/01:00pm SE 20 27 - - - - - - - 24.8 1013.5 -
21/12:30pm SE 18 21 - - - - - - - 25.1 1013.9 -
21/12:00pm SE 17 21 - - - - - - - 25.7 1014.4 -
21/11:30am SE 17 20 - - - - - - - 25.6 1014.9 -
21/11:00am SE 18 21 - - - - - - - 25.4 1015.4 -
21/10:30am SE 17 20 - - - - - - - 25.6 1015.7 -
21/10:00am SE 18 22 - - - - - - - 25.5 1015.5 -
21/09:30am SE 18 21 - - - - - - - 25.9 1015.7 -
21/09:00am SE 19 23 - - - - - - - 25.7 1015.6 -
21/08:30am SE 17 20 - - - - - - - 25.5 1015.8 -
21/08:00am SE 18 21 - - - - - - - 25.4 1016.1 -
21/07:30am ESE 22 25 - - - - - - - 25.3 1015.1 -
21/07:00am SE 22 26 - - - - - - - 25.0 1014.7 -
21/06:30am SE 21 25 - - - - - - - 25.1 1014.6 -
21/06:00am SE 19 22 - - - - - - - 25.5 1014.6 -
21/05:30am SE 19 23 - - - - - - - 25.4 1014.6 -
21/05:00am SE 20 24 - - - - - - - 25.3 1013.9 -
21/04:30am SE 20 23 - - - - - - - 25.4 1013.8 -
21/04:00am SE 19 23 - - - - - - - 25.4 1013.7 -
21/03:30am SE 20 24 - - - - - - - 25.3 1013.8 -
21/03:00am SE 21 25 - - - - - - - 25.4 1013.8 -
21/02:30am SE 21 25 - - - - - - - 25.3 1013.7 -
21/02:00am SE 21 25 - - - - - - - 25.4 1014.3 -
21/01:30am SE 20 26 - - - - - - - 25.5 1014.4 -
21/01:00am SE 21 26 - - - - - - - 25.5 1014.5 -
21/12:30am SE 21 25 - - - - - - - 25.6 1014.7 -
21/12:00am SE 21 27 - - - - - - - 25.5 1014.4 -
 
Date/Time
EST
Wind Sea
Height
m
Swell Vis
km
Cloud Weather Temp
°C
Press
MSL
hPa
Rain since
9am
mm
Dir  Spd
kts
Gust
kts
Height
m
Period
s
Dir
20/11:30pm SE 23 27 - - - - - - - 25.6 1014.5 -
20/11:00pm SE 23 26 - - - - - - - 25.6 1015.0 -
20/10:30pm SE 21 26 - - - - - - - 25.6 1015.1 -
20/10:00pm SE 20 24 - - - - - - - 25.4 1015.4 -
20/09:30pm SE 22 26 - - - - - - - 25.1 1015.5 -
20/09:14pm SE 18 28 - - - - - - - 24.9 1015.8 -
20/09:00pm SE 20 24 - - - - - - - 25.2 1015.5 -
20/08:30pm SE 20 26 - - - - - - - 25.3 1015.4 -
20/08:00pm SE 21 24 - - - - - - - 25.4 1015.1 -
20/07:30pm SE 21 25 - - - - - - - 25.4 1014.6 -
20/07:00pm SE 20 25 - - - - - - - 25.1 1014.2 -
20/06:30pm SE 19 22 - - - - - - - 25.1 1013.8 -
20/06:00pm SE 15 18 - - - - - - - 25.6 1013.9 -
20/05:30pm SE 16 19 - - - - - - - 25.5 1013.5 -
20/05:00pm SE 17 20 - - - - - - - 25.5 1013.1 -
20/04:30pm SE 16 19 - - - - - - - 25.5 1012.9 -
20/04:00pm SE 18 21 - - - - - - - 25.6 1012.4 -
20/03:30pm SE 16 19 - - - - - - - 25.6 1012.3 -
20/03:00pm SE 17 19 - - - - - - - 25.4 1012.2 -
20/02:30pm SE 15 19 - - - - - - - 25.4 1012.3 -
20/02:00pm SE 16 19 - - - - - - - 25.7 1012.3 -
20/01:30pm SE 15 17 - - - - - - - 25.4 1012.4 -
20/01:00pm SE 15 18 - - - - - - - 25.2 1012.5 -
20/12:30pm SE 15 17 - - - - - - - 25.4 1012.8 -
20/12:00pm SE 15 18 - - - - - - - 25.3 1013.3 -
20/11:30am SE 14 17 - - - - - - - 25.5 1013.8 -
20/11:00am SE 15 17 - - - - - - - 25.3 1014.2 -
20/10:30am SE 17 19 - - - - - - - 25.2 1014.5 -
20/10:00am SE 16 20 - - - - - - - 25.2 1014.8 -
20/09:30am SE 16 19 - - - - - - - 25.3 1015.0 -
20/09:00am SE 16 20 - - - - - - - 25.0 1015.2 -
20/08:30am SE 16 19 - - - - - - - 25.0 1015.0 -
20/08:00am SE 16 20 - - - - - - - 24.9 1014.8 -
20/07:30am SE 15 19 - - - - - - - 24.8 1014.6 -
20/07:00am SE 14 17 - - - - - - - 24.7 1014.5 -

Other formats

Comma delimited format used in spreadsheet applications
http://www.bom.gov.au/fwo/IDQ60701/IDQ60701.94293.axf

JavaScript Object Notation format (JSON) in row-major order
http://www.bom.gov.au/fwo/IDQ60701/IDQ60701.94293.json

Data quality

Most of these data are generated automatically and are frequently updated. Quality checks on data are not normally performed. It is possible for incorrect values to appear. Refer to information at About Latest Weather Observations and please check the disclaimer before using these data.